Time;durP1;ratioP1;P1;durP2;ratioP2;P2;SDS_P1;SDS_P2;PMS_P1;PMS_P2;Temp;Humidity;BMP_temperature;BMP_pressure;BME280_temperature;BME280_humidity;BME280_pressure;Samples;Min_cycle;Max_cycle;Signal;HPM_P1;HPM_P2
2021/04/10 00:02:21;;;;;;;9.63;4.47;;;;;;;7.81;63.24;101257.06;6227164;28;20243;-50
2021/04/10 00:05:41;;;;;;;8.90;3.70;;;;;;;7.77;62.42;101260.47;6229458;28;20323;-52
2021/04/10 00:09:03;;;;;;;10.83;4.40;;;;;;;7.85;61.71;101256.22;6225938;28;20232;-49
2021/04/10 00:12:24;;;;;;;15.90;6.53;;;;;;;7.96;61.37;101244.22;6220160;28;20240;-49
2021/04/10 00:15:44;;;;;;;8.50;4.50;;;;;;;8.24;60.71;101241.88;6217633;28;20701;-51
2021/04/10 00:19:06;;;;;;;15.00;5.13;;;;;;;7.99;61.47;101241.69;6221540;28;20259;-48
2021/04/10 00:22:26;;;;;;;10.27;4.03;;;;;;;8.06;60.99;101235.69;6227939;28;20237;-50
2021/04/10 00:25:47;;;;;;;7.37;3.80;;;;;;;8.05;60.96;101239.13;6218036;28;20426;-51
2021/04/10 00:29:07;;;;;;;8.47;3.40;;;;;;;8.16;60.39;101241.81;6206884;28;20616;-54
2021/04/10 00:32:28;;;;;;;11.90;4.77;;;;;;;8.10;60.67;101246.94;6210970;28;20236;-54
2021/04/10 00:35:49;;;;;;;5.43;3.50;;;;;;;7.89;61.52;101247.66;6210268;28;20647;-51
2021/04/10 00:39:10;;;;;;;7.13;3.33;;;;;;;8.07;60.81;101247.78;6213407;28;20328;-53
2021/04/10 00:42:30;;;;;;;11.03;3.80;;;;;;;8.03;61.44;101250.34;6214387;28;20546;-51
2021/04/10 00:45:51;;;;;;;13.33;4.93;;;;;;;8.01;61.59;101242.56;6218538;28;20232;-50
2021/04/10 00:49:12;;;;;;;10.30;5.30;;;;;;;8.11;61.71;101246.09;6224653;28;20232;-53
2021/04/10 00:52:34;;;;;;;11.60;5.00;;;;;;;7.99;62.30;101252.06;6209926;28;20236;-50
2021/04/10 00:55:58;;;;;;;12.90;5.70;;;;;;;7.99;62.69;101253.78;6214783;28;20233;-51
2021/04/10 00:59:18;;;;;;;10.83;6.90;;;;;;;7.79;63.53;101262.25;6207613;28;20860;-50
2021/04/10 01:02:39;;;;;;;13.27;4.83;;;;;;;7.60;64.36;101253.41;6210778;28;20411;-52
2021/04/10 01:06:00;;;;;;;9.83;5.33;;;;;;;7.80;64.16;101245.81;6202346;28;20319;-53
2021/04/10 01:09:22;;;;;;;16.90;6.40;;;;;;;7.68;64.60;101248.31;6208706;28;20256;-53
2021/04/10 01:12:53;;;;;;;10.83;5.83;;;;;;;7.83;64.10;101247.56;6225593;28;20237;-48
2021/04/10 01:16:19;;;;;;;8.07;4.70;;;;;;;7.59;62.21;101243.88;6210807;28;20241;-50
2021/04/10 01:20:02;;;;;;;7.00;3.90;;;;;;;7.74;61.66;101237.13;6222313;28;20612;-52
2021/04/10 01:24:03;;;;;;;9.30;5.10;;;;;;;7.69;61.09;101237.94;6214362;28;20224;-54
2021/04/10 01:27:33;;;;;;;6.83;3.97;;;;;;;7.74;61.16;101245.78;6203323;28;20232;-54
2021/04/10 01:30:58;;;;;;;11.10;5.07;;;;;;;7.78;60.34;101244.94;6211770;28;20236;-52
2021/04/10 01:34:30;;;;;;;11.80;6.03;;;;;;;7.73;60.09;101245.75;6208336;28;20228;-53
2021/04/10 01:37:53;;;;;;;8.63;4.70;;;;;;;7.97;59.63;101245.09;6214336;28;20667;-54
2021/04/10 01:41:16;;;;;;;10.77;5.20;;;;;;;7.95;60.27;101237.31;6216143;28;20327;-53
2021/04/10 01:44:39;;;;;;;9.07;3.83;;;;;;;7.69;61.17;101253.50;6212882;28;20241;-53
2021/04/10 01:48:05;;;;;;;10.17;4.63;;;;;;;7.85;60.42;101256.22;6205038;28;20606;-55
2021/04/10 01:51:30;;;;;;;7.93;4.30;;;;;;;7.83;60.24;101260.53;6222233;28;20232;-52
2021/04/10 01:54:53;;;;;;;14.67;4.00;;;;;;;8.02;59.08;101254.66;6207060;28;20240;-53
2021/04/10 01:58:15;;;;;;;10.00;4.63;;;;;;;8.01;58.87;101263.31;6207969;28;20633;-54
2021/04/10 02:01:40;;;;;;;8.17;3.80;;;;;;;7.96;59.09;101270.16;6216342;28;20252;-50
2021/04/10 02:05:06;;;;;;;10.93;4.30;;;;;;;8.04;58.87;101265.03;6209903;28;20756;-52
2021/04/10 02:08:28;;;;;;;8.07;3.77;;;;;;;7.92;59.32;101271.00;6210528;28;20240;-54
2021/04/10 02:11:55;;;;;;;7.77;4.47;;;;;;;7.90;59.51;101275.31;6182323;28;20233;-54
2021/04/10 02:15:53;;;;;;;11.80;5.27;;;;;;;8.00;59.22;101269.34;6220765;28;20232;-54
2021/04/10 02:19:22;;;;;;;7.77;4.63;;;;;;;8.04;58.86;101271.09;6215028;28;20768;-51
2021/04/10 02:22:54;;;;;;;9.43;5.53;;;;;;;7.93;59.51;101270.16;6224457;28;20840;-49
2021/04/10 02:26:23;;;;;;;8.10;4.00;;;;;;;8.06;58.65;101255.56;6224120;28;20752;-52
2021/04/10 02:29:44;;;;;;;12.00;5.97;;;;;;;7.81;59.57;101263.13;6226415;28;20233;-50
2021/04/10 02:33:09;;;;;;;10.87;4.73;;;;;;;7.84;59.57;101264.88;6221746;28;20228;-53
2021/04/10 02:36:36;;;;;;;7.10;3.73;;;;;;;7.58;60.21;101262.91;6237556;28;20508;-53
2021/04/10 02:39:58;;;;;;;9.20;3.23;;;;;;;7.95;58.94;101276.22;6242070;28;20248;-52
2021/04/10 02:43:25;;;;;;;8.53;4.37;;;;;;;7.83;59.38;101283.88;6227128;28;20251;-54
2021/04/10 02:46:49;;;;;;;8.47;4.27;;;;;;;7.86;59.99;101278.72;6239368;28;20630;-49
2021/04/10 02:50:12;;;;;;;11.27;5.30;;;;;;;7.93;59.99;101271.84;6235524;28;20260;-53
2021/04/10 02:53:37;;;;;;;11.60;4.53;;;;;;;7.97;59.98;101274.50;6239736;28;20224;-54
2021/04/10 02:57:04;;;;;;;10.23;5.07;;;;;;;7.82;60.98;101272.63;6218406;28;20248;-51
2021/04/10 03:00:26;;;;;;;8.70;5.20;;;;;;;7.91;60.74;101282.25;6217959;28;20240;-51
2021/04/10 03:03:50;;;;;;;14.93;5.83;;;;;;;7.88;60.74;101279.59;6236468;28;20935;-52
2021/04/10 03:07:13;;;;;;;8.17;4.53;;;;;;;8.04;60.49;101288.38;6221305;28;20236;-53
2021/04/10 03:10:35;;;;;;;11.07;7.03;;;;;;;7.89;60.96;101304.69;6231628;28;20236;-53
2021/04/10 03:13:57;;;;;;;11.80;5.90;;;;;;;7.79;61.57;101308.94;6227941;28;20243;-52
2021/04/10 03:17:23;;;;;;;8.63;5.30;;;;;;;7.65;62.13;101315.66;6243418;28;20236;-50
2021/04/10 03:20:46;;;;;;;10.03;6.10;;;;;;;7.45;62.75;101297.31;6244222;28;20240;-51
2021/04/10 03:24:08;;;;;;;7.97;4.43;;;;;;;7.13;63.82;101309.88;6226414;28;20315;-52
2021/04/10 03:27:31;;;;;;;15.43;5.53;;;;;;;7.32;63.31;101303.19;6227564;28;21529;-51
2021/04/10 03:30:53;;;;;;;11.73;5.37;;;;;;;7.41;62.26;101300.72;6229934;28;20236;-52
2021/04/10 03:34:20;;;;;;;11.83;5.73;;;;;;;7.37;62.21;101309.31;6228221;28;20638;-54
2021/04/10 03:37:42;;;;;;;10.27;5.27;;;;;;;7.54;61.57;101307.78;6226520;28;20343;-53
2021/04/10 03:41:07;;;;;;;12.47;6.27;;;;;;;7.45;61.03;101313.72;6228219;28;20624;-54
2021/04/10 03:44:28;;;;;;;13.20;4.33;;;;;;;7.59;60.41;101326.84;6227866;28;20603;-53
2021/04/10 03:47:51;;;;;;;12.37;5.10;;;;;;;7.64;60.38;101330.38;6222087;28;20225;-50
2021/04/10 03:51:12;;;;;;;8.83;4.00;;;;;;;7.23;61.16;101328.16;6242630;28;20228;-53
2021/04/10 03:54:42;;;;;;;12.73;4.23;;;;;;;7.31;61.12;101330.84;6236623;28;20346;-52
2021/04/10 03:58:03;;;;;;;13.10;5.27;;;;;;;7.28;60.82;101331.66;6242951;28;20232;-52
2021/04/10 04:01:25;;;;;;;9.67;3.97;;;;;;;7.36;60.31;101334.34;6225134;28;20228;-51
2021/04/10 04:04:47;;;;;;;8.47;4.13;;;;;;;7.43;59.93;101332.72;6221357;28;20319;-53
2021/04/10 04:08:08;;;;;;;6.97;4.13;;;;;;;7.45;59.48;101338.78;6214092;28;20228;-53
2021/04/10 04:11:28;;;;;;;11.77;4.77;;;;;;;7.56;58.99;101341.47;6223152;28;20262;-52
2021/04/10 04:14:49;;;;;;;8.40;3.53;;;;;;;7.33;59.10;101338.59;6224599;28;20233;-47
2021/04/10 04:18:09;;;;;;;11.87;4.90;;;;;;;7.52;58.01;101356.13;6199084;28;20225;-51
2021/04/10 04:21:31;;;;;;;8.07;4.50;;;;;;;7.57;57.92;101353.59;6201084;28;20791;-48
2021/04/10 04:24:51;;;;;;;10.00;5.63;;;;;;;7.62;57.46;101358.00;6230366;28;20228;-51
2021/04/10 04:28:11;;;;;;;15.90;5.37;;;;;;;7.57;57.62;101364.84;6225330;28;20228;-50
2021/04/10 04:31:32;;;;;;;13.90;4.90;;;;;;;7.56;57.15;101362.22;6232451;28;20862;-49
2021/04/10 04:34:53;;;;;;;9.13;4.90;;;;;;;7.44;57.15;101362.94;6227971;28;20241;-52
2021/04/10 04:38:14;;;;;;;11.67;5.23;;;;;;;7.44;57.26;101365.53;6231187;28;20224;-53
2021/04/10 04:41:35;;;;;;;9.77;3.60;;;;;;;7.52;56.72;101361.31;6224414;28;20224;-54
2021/04/10 04:44:55;;;;;;;9.50;3.30;;;;;;;7.62;56.48;101360.59;6200013;28;20380;-55
2021/04/10 04:48:15;;;;;;;5.57;3.33;;;;;;;7.43;57.12;101366.41;6230614;28;20232;-51
2021/04/10 04:51:36;;;;;;;10.13;4.50;;;;;;;7.47;57.06;101373.34;6223609;28;20610;-47
2021/04/10 04:54:57;;;;;;;8.50;3.80;;;;;;;7.63;56.51;101364.91;6225749;28;20229;-55
2021/04/10 04:58:18;;;;;;;11.47;4.23;;;;;;;7.56;56.48;101385.53;6225787;28;20241;-52
2021/04/10 05:01:38;;;;;;;6.97;3.63;;;;;;;7.60;56.56;101389.91;6228823;28;20502;-51
2021/04/10 05:04:59;;;;;;;8.33;5.03;;;;;;;7.62;57.01;101394.28;6226840;28;20240;-51
2021/04/10 05:08:19;;;;;;;9.73;4.23;;;;;;;7.59;56.62;101402.00;6216558;28;20221;-51
2021/04/10 05:11:41;;;;;;;8.40;4.70;;;;;;;7.62;56.75;101393.41;6225158;28;20232;-51
2021/04/10 05:15:01;;;;;;;6.00;3.87;;;;;;;7.57;56.53;101390.75;6220405;28;20323;-52
2021/04/10 05:18:21;;;;;;;10.43;3.70;;;;;;;7.55;57.17;101395.06;6227158;28;20297;-54
2021/04/10 05:21:42;;;;;;;13.63;5.70;;;;;;;7.55;56.94;101397.63;6214725;28;20221;-52
2021/04/10 05:25:03;;;;;;;11.67;3.07;;;;;;;7.38;56.52;101410.38;6222946;28;20894;-52
2021/04/10 05:28:25;;;;;;;8.57;4.77;;;;;;;7.39;56.81;101411.25;6228772;28;20333;-52
2021/04/10 05:31:46;;;;;;;10.73;3.87;;;;;;;7.63;56.00;101416.75;6219877;28;20251;-51
2021/04/10 05:35:07;;;;;;;6.43;2.50;;;;;;;7.66;55.02;101426.31;6225620;28;20227;-48
2021/04/10 05:38:27;;;;;;;9.77;4.07;;;;;;;7.55;55.66;101426.16;6224714;28;20233;-52
2021/04/10 05:41:48;;;;;;;10.50;4.40;;;;;;;7.73;55.36;101428.09;6226841;28;20228;-53
2021/04/10 05:45:11;;;;;;;10.70;4.80;;;;;;;7.80;54.96;101435.13;6223111;28;20232;-48
2021/04/10 05:48:31;;;;;;;17.27;5.10;;;;;;;7.97;54.57;101443.09;6224353;28;20233;-50
2021/04/10 05:51:51;;;;;;;9.17;3.50;;;;;;;8.02;54.17;101441.41;6227021;28;20236;-53
2021/04/10 05:55:12;;;;;;;12.03;4.67;;;;;;;8.21;53.33;101449.41;6223635;28;20595;-52
2021/04/10 05:58:32;;;;;;;7.63;2.90;;;;;;;8.12;53.36;101446.72;6229331;28;20221;-53
2021/04/10 06:01:54;;;;;;;8.73;3.30;;;;;;;7.93;52.33;101461.19;6222615;28;20236;-55
2021/04/10 06:05:14;;;;;;;10.80;4.60;;;;;;;8.19;51.99;101464.97;6221600;28;20236;-51
2021/04/10 06:08:35;;;;;;;8.87;2.93;;;;;;;8.20;52.29;101463.22;6221654;28;20423;-53
2021/04/10 06:11:56;;;;;;;8.10;3.83;;;;;;;8.26;51.62;101471.09;6201004;28;20607;-54
2021/04/10 06:15:18;;;;;;;7.80;2.90;;;;;;;8.25;50.53;101466.75;6221636;28;20541;-52
2021/04/10 06:18:40;;;;;;;6.57;2.57;;;;;;;8.26;50.77;101477.16;6218581;28;20224;-51
2021/04/10 06:22:00;;;;;;;8.70;3.10;;;;;;;8.23;50.31;101477.09;6220031;28;20228;-51
2021/04/10 06:25:20;;;;;;;9.83;2.67;;;;;;;8.24;50.03;101483.19;6217894;28;20475;-53
2021/04/10 06:28:41;;;;;;;8.43;3.63;;;;;;;8.22;50.15;101484.88;6217180;28;20315;-55
2021/04/10 06:32:01;;;;;;;10.53;2.63;;;;;;;8.29;49.90;101491.88;6217703;28;20236;-54
2021/04/10 06:35:23;;;;;;;12.30;3.07;;;;;;;8.34;50.02;101499.75;6205295;28;20536;-52
2021/04/10 06:38:44;;;;;;;9.93;3.90;;;;;;;8.42;49.05;101503.31;6208283;28;20232;-50
2021/04/10 06:42:05;;;;;;;9.67;4.47;;;;;;;8.31;49.21;101500.56;6211992;28;20229;-51
2021/04/10 06:45:26;;;;;;;6.00;2.40;;;;;;;8.26;49.26;101502.25;6221184;28;20232;-52
2021/04/10 06:48:51;;;;;;;15.93;4.13;;;;;;;8.06;48.93;101513.25;6214249;28;20228;-52
2021/04/10 06:52:16;;;;;;;12.10;2.93;;;;;;;8.29;48.38;101508.31;6218130;28;20244;-53
2021/04/10 06:55:44;;;;;;;8.07;2.60;;;;;;;8.57;47.38;101518.16;6223437;28;21427;-50
2021/04/10 06:59:10;;;;;;;5.80;3.40;;;;;;;8.85;48.25;101522.78;6234563;28;20606;-52
2021/04/10 07:02:32;;;;;;;8.33;2.57;;;;;;;8.74;46.32;101515.75;6222861;28;20588;-53
2021/04/10 07:05:53;;;;;;;6.87;2.97;;;;;;;8.79;45.99;101522.72;6212676;28;20225;-55
2021/04/10 07:09:16;;;;;;;12.13;2.97;;;;;;;8.78;46.02;101518.41;6221773;28;20236;-51
2021/04/10 07:12:37;;;;;;;14.33;5.40;;;;;;;8.67;46.06;101525.22;6222568;28;20224;-51
2021/04/10 07:16:00;;;;;;;11.47;4.47;;;;;;;8.66;46.17;101528.66;6219716;28;20225;-53
2021/04/10 07:19:20;;;;;;;10.53;3.60;;;;;;;8.82;45.44;101533.16;6219768;28;20304;-51
2021/04/10 07:22:56;;;;;;;7.27;2.97;;;;;;;8.99;44.27;101524.63;6222376;28;20236;-51
2021/04/10 07:26:19;;;;;;;7.33;2.87;;;;;;;9.05;43.53;101525.56;6224595;28;20232;-50
2021/04/10 07:29:40;;;;;;;9.17;3.27;;;;;;;8.85;44.10;101529.69;6221690;28;20225;-49
2021/04/10 07:33:01;;;;;;;8.43;2.57;;;;;;;8.52;43.35;101538.03;6220415;28;21169;-54
2021/04/10 07:36:23;;;;;;;10.03;4.13;;;;;;;9.03;45.41;101541.97;6228427;28;20728;-50
2021/04/10 07:39:45;;;;;;;11.37;5.93;;;;;;;9.60;43.90;101538.09;6223893;28;20315;-53
2021/04/10 07:43:06;;;;;;;8.30;3.70;;;;;;;9.34;41.81;101544.84;6224727;28;20225;-51
2021/04/10 07:46:28;;;;;;;10.40;3.00;;;;;;;9.72;41.60;101541.66;6236399;28;20258;-54
2021/04/10 07:49:49;;;;;;;7.97;2.43;;;;;;;9.79;41.32;101548.59;6223981;28;20228;-52
2021/04/10 07:53:20;;;;;;;5.83;2.33;;;;;;;9.80;41.41;101550.34;6229692;28;20227;-50
2021/04/10 07:56:54;;;;;;;9.13;2.60;;;;;;;10.06;40.86;101555.69;6228732;28;20604;-52
2021/04/10 08:00:16;;;;;;;9.67;2.87;;;;;;;10.07;39.69;101554.84;6228185;28;20220;-55
2021/04/10 08:03:38;;;;;;;8.17;2.27;;;;;;;10.24;39.11;101557.53;6226049;28;20232;-55
2021/04/10 08:07:00;;;;;;;4.67;1.70;;;;;;;9.76;39.51;101553.81;6222072;28;20233;-52
2021/04/10 08:10:28;;;;;;;6.57;2.30;;;;;;;9.92;39.62;101560.81;6220382;28;20240;-54
2021/04/10 08:14:00;;;;;;;13.80;2.30;;;;;;;10.39;38.61;101568.03;6217370;28;20240;-53
2021/04/10 08:17:36;;;;;;;5.60;2.80;;;;;;;10.39;38.52;101572.34;6229252;28;20338;-55
2021/04/10 08:20:56;;;;;;;4.23;2.13;;;;;;;10.87;46.32;101575.97;6219753;28;20322;-56
2021/04/10 08:24:28;;;;;;;6.10;2.57;;;;;;;12.04;48.91;101569.81;6228019;28;20259;-55
2021/04/10 08:27:49;;;;;;;19.97;1.93;;;;;;;12.76;47.04;101572.13;6230093;28;20224;-53
2021/04/10 08:31:09;;;;;;;9.00;3.20;;;;;;;12.96;40.28;101565.00;6227793;28;20233;-54
2021/04/10 08:34:31;;;;;;;7.03;2.40;;;;;;;13.20;41.61;101574.44;6237035;28;20236;-56
2021/04/10 08:38:00;;;;;;;5.03;1.67;;;;;;;13.25;38.17;101570.91;6230264;28;20287;-55
2021/04/10 08:41:27;;;;;;;6.57;2.47;;;;;;;12.60;35.62;101573.94;6215441;28;20236;-53
2021/04/10 08:44:48;;;;;;;7.40;2.20;;;;;;;12.29;34.84;101586.28;6225254;28;20224;-50
2021/04/10 08:48:10;;;;;;;6.63;2.47;;;;;;;12.29;34.09;101587.16;6225664;28;20239;-51
2021/04/10 08:51:34;;;;;;;7.33;2.50;;;;;;;12.26;34.13;101586.31;6231442;28;20600;-50
2021/04/10 08:54:58;;;;;;;4.27;2.00;;;;;;;11.99;34.47;101586.38;6223769;28;20229;-53
2021/04/10 08:58:21;;;;;;;6.37;2.33;;;;;;;12.18;33.84;101599.38;6226218;28;20224;-55
2021/04/10 09:01:43;;;;;;;7.37;1.63;;;;;;;12.53;34.02;101595.78;6225832;28;20602;-54
2021/04/10 09:05:06;;;;;;;11.63;2.63;;;;;;;12.32;33.31;101602.81;6226296;28;20617;-54
2021/04/10 09:08:28;;;;;;;4.33;2.00;;;;;;;12.10;34.58;101602.03;6227369;28;20228;-53
2021/04/10 09:12:20;;;;;;;3.73;1.67;;;;;;;11.95;33.73;101597.69;6225522;28;20797;-55
2021/04/10 09:15:41;;;;;;;4.00;1.87;;;;;;;12.20;33.32;101606.34;6223329;28;20228;-57
2021/04/10 09:19:12;;;;;;;4.70;2.17;;;;;;;12.51;33.57;101605.38;6225688;28;20621;-56
2021/04/10 09:22:39;;;;;;;4.10;1.40;;;;;;;13.25;33.17;101621.47;6218121;28;20224;-57
2021/04/10 09:26:08;;;;;;;5.37;2.60;;;;;;;12.71;33.28;101621.78;6220331;28;21921;-52
2021/04/10 09:29:29;;;;;;;7.00;2.27;;;;;;;12.76;33.47;101625.25;6226065;28;20620;-55
2021/04/10 09:32:50;;;;;;;9.17;2.40;;;;;;;14.01;31.60;101624.31;6226063;28;20244;-55
2021/04/10 09:36:44;;;;;;;4.93;2.37;;;;;;;13.89;31.51;101622.69;6221413;28;20785;-55
2021/04/10 09:40:09;;;;;;;8.50;2.57;;;;;;;13.81;31.13;101627.13;6227425;28;20343;-51
2021/04/10 09:43:30;;;;;;;9.07;3.37;;;;;;;13.96;31.82;101627.00;6221570;28;20251;-56
2021/04/10 09:46:54;;;;;;;8.43;2.13;;;;;;;14.71;30.26;101620.03;6219648;28;20639;-54
2021/04/10 09:50:14;;;;;;;2.90;1.80;;;;;;;14.53;30.86;101630.72;6224980;28;20647;-51
2021/04/10 09:53:35;;;;;;;7.10;2.30;;;;;;;14.70;29.95;101631.41;6217251;28;20903;-51
2021/04/10 09:56:55;;;;;;;5.83;2.63;;;;;;;14.54;30.20;101637.72;6222605;28;20236;-53
2021/04/10 10:00:24;;;;;;;5.60;1.90;;;;;;;14.95;29.58;101638.94;6215401;28;20233;-51
2021/04/10 10:03:47;;;;;;;5.90;2.07;;;;;;;14.53;29.25;101641.19;6225491;28;20232;-56
2021/04/10 10:07:07;;;;;;;5.53;1.70;;;;;;;15.04;28.60;101633.53;6232938;28;20232;-56
2021/04/10 10:10:31;;;;;;;3.37;1.57;;;;;;;14.79;28.44;101634.78;6217768;28;20232;-51
2021/04/10 10:13:55;;;;;;;5.83;2.00;;;;;;;14.49;28.87;101639.50;6225398;28;20228;-56
2021/04/10 10:17:16;;;;;;;6.90;2.37;;;;;;;15.00;28.29;101642.34;6221525;28;20260;-55
2021/04/10 10:20:37;;;;;;;3.57;2.20;;;;;;;14.79;27.27;101638.25;6225199;28;20383;-56
2021/04/10 10:24:00;;;;;;;3.17;1.33;;;;;;;14.51;27.76;101637.72;6222245;28;20521;-57
2021/04/10 10:27:33;;;;;;;2.87;1.50;;;;;;;13.74;28.77;101633.31;6221164;28;20343;-55
2021/04/10 10:30:53;;;;;;;5.27;1.63;;;;;;;14.28;28.00;101636.25;6223271;28;20305;-55
2021/04/10 10:34:16;;;;;;;3.30;1.63;;;;;;;14.56;28.38;101630.69;6224765;28;20677;-58
2021/04/10 10:37:36;;;;;;;5.17;1.80;;;;;;;13.94;28.21;101631.38;6227566;28;20251;-57
2021/04/10 10:40:57;;;;;;;3.30;1.50;;;;;;;15.53;27.39;101643.28;6220929;28;20237;-57
2021/04/10 10:44:18;;;;;;;4.13;1.90;;;;;;;15.63;26.11;101632.63;6214513;28;20221;-57
2021/04/10 10:47:39;;;;;;;5.47;2.37;;;;;;;15.27;26.63;101629.72;6217317;28;20236;-56
2021/04/10 10:51:06;;;;;;;5.53;2.50;;;;;;;16.71;26.85;101624.44;6206467;28;20232;-57
2021/04/10 10:54:31;;;;;;;3.73;1.80;;;;;;;17.24;24.90;101620.63;6216376;28;20655;-57
2021/04/10 10:57:52;;;;;;;8.57;2.13;;;;;;;17.58;24.11;101619.78;6217486;28;20367;-58
2021/04/10 11:01:15;;;;;;;5.90;2.23;;;;;;;17.70;22.92;101615.09;6218176;28;20236;-58
2021/04/10 11:04:39;;;;;;;5.67;2.13;;;;;;;17.21;23.38;101620.69;6215945;28;20232;-55
2021/04/10 11:08:00;;;;;;;6.93;1.77;;;;;;;17.81;22.43;101612.16;6216530;28;20240;-57
2021/04/10 11:11:24;;;;;;;2.93;1.67;;;;;;;18.64;22.14;101612.47;6216835;28;20312;-57
2021/04/10 11:14:47;;;;;;;5.03;1.67;;;;;;;19.00;21.84;101607.00;6212073;28;20531;-54
2021/04/10 11:18:24;;;;;;;4.00;1.23;;;;;;;18.53;22.25;101609.28;6205037;28;20236;-56
2021/04/10 11:21:49;;;;;;;6.20;2.10;;;;;;;18.51;21.54;101608.47;6210875;28;20614;-54
2021/04/10 11:25:11;;;;;;;4.60;1.63;;;;;;;17.35;22.14;101597.56;6218200;28;20347;-58
2021/04/10 11:28:33;;;;;;;4.10;1.80;;;;;;;18.66;21.38;101607.16;6224186;28;20229;-56
2021/04/10 11:32:26;;;;;;;7.47;2.30;;;;;;;20.39;19.19;101610.19;6220397;28;20220;-56
2021/04/10 11:35:53;;;;;;;5.43;2.53;;;;;;;22.83;17.71;101600.75;6132329;28;20238;-58
2021/04/10 11:39:14;;;;;;;4.35;2.00;;;;;;;22.94;16.85;101601.13;6217007;28;20231;-54
2021/04/10 11:42:38;;;;;;;4.03;1.25;;;;;;;23.99;14.70;101599.38;6225412;28;20228;-57
2021/04/10 11:45:58;;;;;;;2.88;1.48;;;;;;;23.40;15.48;101593.56;6216122;28;20225;-54
2021/04/10 11:49:25;;;;;;;3.83;1.70;;;;;;;25.52;13.96;101597.91;6209121;28;20697;-57
2021/04/10 11:52:47;;;;;;;6.13;2.05;;;;;;;23.00;14.29;101596.34;6212474;28;20236;-57
2021/04/10 11:56:24;;;;;;;5.85;3.30;;;;;;;22.08;16.05;101599.78;6206703;28;20237;-56
2021/04/10 11:59:46;;;;;;;7.05;4.78;;;;;;;23.16;14.92;101596.47;6213081;28;20232;-55
2021/04/10 12:03:08;;;;;;;3.10;1.80;;;;;;;25.34;13.98;101589.22;6219201;28;20240;-54
2021/04/10 12:06:31;;;;;;;10.80;2.40;;;;;;;26.86;11.95;101592.25;6212385;28;20661;-55
2021/04/10 12:09:51;;;;;;;3.47;1.95;;;;;;;27.95;11.92;101588.56;6211208;28;20682;-55
2021/04/10 12:13:12;;;;;;;2.53;1.52;;;;;;;26.53;11.39;101597.97;6206981;28;20232;-57
2021/04/10 12:16:34;;;;;;;4.43;2.80;;;;;;;24.95;12.53;101597.66;6210244;28;20232;-58
2021/04/10 12:19:55;;;;;;;4.03;2.10;;;;;;;25.53;12.79;101593.44;6218479;28;20328;-57
2021/04/10 12:23:16;;;;;;;4.18;1.70;;;;;;;23.68;13.30;101603.63;6211910;28;20232;-57
2021/04/10 12:26:37;;;;;;;4.78;2.20;;;;;;;24.79;13.10;101592.34;6209614;28;20236;-58
2021/04/10 12:29:58;;;;;;;5.75;2.10;;;;;;;24.92;12.44;101584.53;6199278;28;20823;-56
2021/04/10 12:33:19;;;;;;;5.18;2.35;;;;;;;26.45;12.76;101573.56;6213560;28;20240;-54
2021/04/10 12:36:39;;;;;;;3.10;2.42;;;;;;;27.58;12.19;101575.03;6209013;28;20747;-57
2021/04/10 12:40:00;;;;;;;5.45;1.90;;;;;;;27.40;11.67;101563.81;6208735;28;20251;-57
2021/04/10 12:43:20;;;;;;;5.53;1.77;;;;;;;26.35;12.21;101557.28;6218736;28;20241;-57
2021/04/10 12:46:41;;;;;;;3.75;2.35;;;;;;;27.79;12.17;101564.66;6214178;28;20232;-58
2021/04/10 12:50:03;;;;;;;6.63;2.58;;;;;;;29.36;10.97;101551.41;6215542;28;21197;-54
2021/04/10 12:53:24;;;;;;;7.18;2.42;;;;;;;27.34;11.72;101550.84;6214364;28;20232;-57
2021/04/10 12:56:45;;;;;;;5.88;2.55;;;;;;;26.43;12.53;101541.63;6216841;28;20533;-54
2021/04/10 13:00:07;;;;;;;3.95;2.15;;;;;;;26.57;12.82;101534.53;6207729;28;20243;-57
2021/04/10 13:03:28;;;;;;;4.72;2.22;;;;;;;25.05;13.04;101534.94;6208635;28;20252;-56
2021/04/10 13:06:49;;;;;;;6.07;2.25;;;;;;;25.48;13.28;101536.88;6212601;28;20232;-58
2021/04/10 13:10:11;;;;;;;9.25;1.83;;;;;;;25.57;13.64;101539.00;6212458;28;20229;-57
2021/04/10 13:13:32;;;;;;;3.78;1.65;;;;;;;23.91;16.59;101540.41;6216046;28;20315;-56
2021/04/10 13:16:53;;;;;;;4.03;2.17;;;;;;;24.06;16.48;101542.25;6216698;28;20598;-57
2021/04/10 13:20:18;;;;;;;3.92;1.80;;;;;;;25.11;13.97;101534.56;6209563;28;21003;-58
2021/04/10 13:23:40;;;;;;;3.85;1.85;;;;;;;24.59;13.63;101534.06;6217011;28;20232;-56
2021/04/10 13:27:00;;;;;;;4.68;2.78;;;;;;;25.91;13.96;101531.59;6197843;28;20229;-57
2021/04/10 13:30:22;;;;;;;3.15;2.20;;;;;;;24.62;15.20;101532.09;6218822;28;20229;-57
2021/04/10 13:33:43;;;;;;;7.40;2.17;;;;;;;24.76;14.38;101529.47;6211266;28;20412;-57
2021/04/10 13:37:03;;;;;;;6.50;3.55;;;;;;;24.62;13.89;101523.22;6208478;28;20229;-56
2021/04/10 13:40:25;;;;;;;6.57;5.47;;;;;;;24.13;15.20;101522.31;6210167;28;20603;-58
2021/04/10 13:43:46;;;;;;;6.70;2.50;;;;;;;24.06;14.38;101525.41;6199831;28;20232;-55
2021/04/10 13:47:06;;;;;;;6.28;2.08;;;;;;;21.48;15.86;101520.25;6209938;28;20224;-56
2021/04/10 13:50:27;;;;;;;4.65;1.90;;;;;;;20.27;17.47;101530.38;6211448;28;20343;-56
2021/04/10 13:53:48;;;;;;;6.43;1.63;;;;;;;22.03;16.01;101520.44;6208681;28;20228;-58
2021/04/10 13:57:10;;;;;;;4.07;2.53;;;;;;;21.44;17.14;101516.84;6209011;28;20331;-56
2021/04/10 14:00:30;;;;;;;7.32;2.45;;;;;;;22.03;17.48;101515.13;6216131;28;20614;-56
2021/04/10 14:03:50;;;;;;;4.03;1.50;;;;;;;21.13;20.09;101514.63;6208318;28;20229;-55
2021/04/10 14:07:12;;;;;;;5.63;2.00;;;;;;;20.17;19.44;101518.44;6208643;28;20228;-53
2021/04/10 14:10:32;;;;;;;6.38;2.50;;;;;;;18.84;21.19;101505.47;6213763;28;20252;-55
2021/04/10 14:13:53;;;;;;;3.13;1.90;;;;;;;17.28;22.44;101517.00;6210254;28;20597;-55
2021/04/10 14:17:13;;;;;;;3.78;2.60;;;;;;;13.89;25.59;101517.09;6209560;28;20314;-55
2021/04/10 14:20:36;;;;;;;4.73;2.40;;;;;;;17.00;25.41;101496.66;6215117;28;20228;-53
2021/04/10 14:23:57;;;;;;;3.28;2.13;;;;;;;18.05;20.81;101494.69;6209052;28;20594;-52
2021/04/10 14:27:17;;;;;;;5.53;2.60;;;;;;;17.80;22.77;101489.25;6210057;28;20236;-54
2021/04/10 14:30:40;;;;;;;7.17;3.13;;;;;;;18.30;22.20;101496.63;6201304;28;20339;-54
2021/04/10 14:34:00;;;;;;;10.17;2.07;;;;;;;18.15;24.25;101490.03;6213822;28;20588;-53
2021/04/10 14:37:21;;;;;;;4.33;1.93;;;;;;;16.41;22.03;101491.00;6208375;28;20228;-56
2021/04/10 14:40:43;;;;;;;4.83;2.27;;;;;;;17.19;24.05;101491.75;6211140;28;20233;-55
2021/04/10 14:44:03;;;;;;;6.33;2.17;;;;;;;17.22;23.82;101480.31;6212950;28;20240;-57
2021/04/10 14:47:24;;;;;;;4.60;2.37;;;;;;;17.35;22.92;101480.84;6210519;28;20926;-57
2021/04/10 14:50:46;;;;;;;2.87;1.70;;;;;;;17.08;21.13;101475.41;6209143;28;20248;-56
2021/04/10 14:54:06;;;;;;;3.73;1.90;;;;;;;17.76;22.57;101478.81;6206066;28;20618;-58
2021/04/10 14:57:27;;;;;;;4.97;2.57;;;;;;;17.87;22.30;101469.75;6217216;28;20263;-56
2021/04/10 15:00:48;;;;;;;5.90;1.80;;;;;;;17.55;23.18;101461.88;6216076;28;20237;-54
2021/04/10 15:04:09;;;;;;;3.47;1.93;;;;;;;17.15;22.83;101465.56;6218544;28;20232;-55
2021/04/10 15:07:31;;;;;;;4.77;1.90;;;;;;;16.55;23.94;101465.25;6213066;28;20888;-53
2021/04/10 15:10:53;;;;;;;5.50;2.17;;;;;;;16.25;23.92;101467.69;6221230;28;20236;-54
2021/04/10 15:14:15;;;;;;;5.67;2.17;;;;;;;15.81;24.39;101466.88;6230814;28;20224;-56
2021/04/10 15:17:36;;;;;;;2.67;1.83;;;;;;;15.68;24.06;101466.25;6229445;28;20248;-55
2021/04/10 15:20:57;;;;;;;5.63;2.20;;;;;;;15.72;24.71;101467.03;6223930;28;20268;-56
2021/04/10 15:24:17;;;;;;;3.93;2.60;;;;;;;15.91;25.24;101465.78;6238882;28;20591;-55
2021/04/10 15:27:38;;;;;;;6.60;2.70;;;;;;;15.83;25.40;101462.47;6230176;28;20503;-53
2021/04/10 15:31:03;;;;;;;6.67;2.97;;;;;;;15.44;25.14;101459.69;6232016;28;20627;-56
2021/04/10 15:34:24;;;;;;;2.77;1.80;;;;;;;15.22;25.67;101463.59;6202197;28;20283;-56
2021/04/10 15:37:45;;;;;;;5.90;1.90;;;;;;;15.04;25.16;101464.81;6207226;28;20232;-56
2021/04/10 15:41:06;;;;;;;4.37;2.50;;;;;;;14.67;26.70;101458.41;6221068;28;20232;-55
2021/04/10 15:44:26;;;;;;;5.03;2.57;;;;;;;14.60;27.06;101459.41;6207080;28;20224;-56
2021/04/10 15:47:48;;;;;;;3.33;2.73;;;;;;;14.68;27.09;101454.91;6213863;28;20232;-56